createdAt,value
2022-08-02T00:00:14.672Z,7
2022-08-02T00:05:19.256Z,7
2022-08-02T00:10:23.784Z,6
2022-08-02T00:15:28.286Z,7
2022-08-02T00:20:31.842Z,7
2022-08-02T00:25:36.422Z,7
2022-08-02T00:30:40.921Z,8
2022-08-02T00:35:44.445Z,8
2022-08-02T00:40:49.001Z,8
2022-08-02T00:46:02.516Z,8
2022-08-02T00:50:57.058Z,8
2022-08-02T00:56:01.613Z,8
2022-08-02T01:01:06.256Z,8
2022-08-02T01:06:11.442Z,9
2022-08-02T01:11:14.253Z,9
2022-08-02T01:16:18.784Z,9
2022-08-02T01:21:23.344Z,9
2022-08-02T01:26:26.860Z,8
2022-08-02T01:31:30.381Z,8
2022-08-02T01:36:34.924Z,8
2022-08-02T01:41:39.472Z,8
2022-08-02T01:46:43.032Z,10
2022-08-02T01:51:47.571Z,12
2022-08-02T01:56:52.092Z,12
2022-08-02T02:01:56.614Z,14
2022-08-02T02:07:00.179Z,15
2022-08-02T02:12:12.943Z,15
2022-08-02T02:17:09.225Z,16
2022-08-02T02:22:13.041Z,15
2022-08-02T02:27:17.309Z,14
2022-08-02T02:32:21.831Z,15
2022-08-02T02:37:25.407Z,16
2022-08-02T02:42:29.980Z,16
2022-08-02T02:47:40.580Z,17
2022-08-02T02:52:37.997Z,17
2022-08-02T02:57:42.521Z,17
2022-08-02T03:02:47.057Z,17
2022-08-02T03:07:51.622Z,16
2022-08-02T03:12:55.137Z,16
2022-08-02T03:17:59.734Z,17
2022-08-02T03:23:04.261Z,17
2022-08-02T03:28:07.778Z,17
2022-08-02T03:33:12.300Z,16
2022-08-02T03:38:16.865Z,16
2022-08-02T03:43:20.398Z,16
2022-08-02T03:48:30.789Z,16
2022-08-02T03:53:29.477Z,16
2022-08-02T03:58:34.002Z,15
2022-08-02T04:03:37.528Z,14
2022-08-02T04:08:42.083Z,15
2022-08-02T04:13:46.661Z,14
2022-08-02T04:18:50.173Z,15
2022-08-02T04:23:54.725Z,14
2022-08-02T04:28:59.238Z,15
2022-08-02T04:34:02.803Z,15
2022-08-02T04:39:07.329Z,15
2022-08-02T04:44:11.850Z,14
2022-08-02T04:49:15.519Z,13
2022-08-02T04:54:19.934Z,12
2022-08-02T04:59:24.451Z,12
2022-08-02T05:04:28.979Z,13
2022-08-02T05:09:32.576Z,14
2022-08-02T05:14:37.063Z,13
2022-08-02T05:19:41.585Z,12
2022-08-02T05:24:45.162Z,13
2022-08-02T05:29:53.833Z,13
2022-08-02T05:34:54.213Z,10
2022-08-02T05:39:57.751Z,9
2022-08-02T05:45:01.344Z,9
2022-08-02T05:50:05.890Z,9
2022-08-02T05:55:10.394Z,10
2022-08-02T06:00:14.957Z,8
2022-08-02T06:05:18.466Z,9
2022-08-02T06:10:23.017Z,9
2022-08-02T06:15:27.535Z,9
2022-08-02T06:20:31.078Z,9
2022-08-02T06:25:49.985Z,9
2022-08-02T06:30:40.140Z,8
2022-08-02T06:35:43.689Z,8
2022-08-02T06:40:48.249Z,8
2022-08-02T06:45:52.785Z,7
2022-08-02T06:50:56.331Z,8
2022-08-02T06:56:00.861Z,7
2022-08-02T07:01:05.445Z,6
2022-08-02T07:06:09.913Z,6
2022-08-02T07:11:13.483Z,6
2022-08-02T07:16:18.023Z,6
2022-08-02T07:21:56.667Z,6
2022-08-02T07:26:26.169Z,5
2022-08-02T07:31:30.659Z,5
2022-08-02T07:36:35.224Z,4
2022-08-02T07:41:38.754Z,4
2022-08-02T07:46:43.311Z,3
2022-08-02T07:51:48.070Z,3
2022-08-02T07:56:57.603Z,3
2022-08-02T08:01:56.047Z,3
2022-08-02T08:07:00.437Z,3
2022-08-02T08:12:05.025Z,3
2022-08-02T08:17:08.537Z,3
2022-08-02T08:22:13.425Z,3
2022-08-02T08:27:17.613Z,3
2022-08-02T08:32:21.654Z,3
2022-08-02T08:37:25.708Z,3
2022-08-02T08:42:30.213Z,2
2022-08-02T08:47:34.490Z,2
2022-08-02T08:52:38.337Z,2
2022-08-02T08:57:42.868Z,2
2022-08-02T09:02:46.458Z,2
2022-08-02T09:07:50.932Z,2
2022-08-02T09:12:55.477Z,2
2022-08-02T09:18:00.009Z,2
2022-08-02T09:23:03.617Z,2
2022-08-02T09:28:08.125Z,2
2022-08-02T09:33:12.676Z,2
2022-08-02T09:38:16.232Z,2
2022-08-02T09:43:20.744Z,2
2022-08-02T09:48:25.304Z,2
2022-08-02T09:53:29.007Z,2
2022-08-02T09:58:33.392Z,2
2022-08-02T10:03:37.414Z,2
2022-08-02T10:08:41.458Z,2
2022-08-02T10:13:46.254Z,2
2022-08-02T10:18:49.563Z,2
2022-08-02T10:23:54.102Z,2
2022-08-02T10:28:58.645Z,2
2022-08-02T10:34:02.191Z,2
2022-08-02T10:39:06.752Z,2
2022-08-02T10:44:24.660Z,2
2022-08-02T10:49:40.315Z,2
2022-08-02T10:54:19.363Z,2
2022-08-02T10:59:23.900Z,2
2022-08-02T11:04:28.486Z,2
2022-08-02T11:09:33.450Z,2
2022-08-02T11:14:36.538Z,2
2022-08-02T11:19:41.505Z,2
2022-08-02T11:24:44.641Z,2
2022-08-02T11:29:49.155Z,2
2022-08-02T11:34:53.843Z,2
2022-08-02T11:39:57.236Z,2
2022-08-02T11:45:01.776Z,2
2022-08-02T11:50:06.311Z,2
2022-08-02T11:55:09.871Z,2
2022-08-02T12:00:14.397Z,2
2022-08-02T12:05:18.940Z,2
2022-08-02T12:10:23.490Z,2
2022-08-02T12:15:27.038Z,2
2022-08-02T12:20:31.557Z,2
2022-08-02T12:25:36.106Z,2
2022-08-02T12:30:39.673Z,2
2022-08-02T12:35:44.211Z,2
2022-08-02T12:40:48.723Z,2
2022-08-02T12:45:52.308Z,2
2022-08-02T12:50:56.840Z,2
2022-08-02T12:56:03.739Z,2
2022-08-02T13:01:04.932Z,2
2022-08-02T13:06:41.057Z,2
2022-08-02T13:11:14.046Z,2
2022-08-02T13:16:18.560Z,2
2022-08-02T13:21:41.752Z,2
2022-08-02T13:26:31.057Z,2
2022-08-02T13:31:36.468Z,2
2022-08-02T13:36:34.724Z,2
2022-08-02T13:41:39.302Z,2
2022-08-02T13:46:45.354Z,2
2022-08-02T13:51:47.378Z,2
2022-08-02T13:56:51.888Z,2
2022-08-02T14:01:56.732Z,2
2022-08-02T14:06:59.970Z,2
2022-08-02T14:12:04.520Z,2
2022-08-02T14:17:08.106Z,2
2022-08-02T14:22:12.683Z,2
2022-08-02T14:27:17.201Z,2
2022-08-02T14:32:20.700Z,2
2022-08-02T14:37:25.243Z,1
2022-08-02T14:42:29.805Z,2
2022-08-02T14:47:33.339Z,2
2022-08-02T14:52:37.904Z,2
2022-08-02T14:57:42.468Z,2
2022-08-02T15:02:47.074Z,2
2022-08-02T15:07:50.499Z,2
2022-08-02T15:12:55.044Z,2
2022-08-02T15:18:00.227Z,2
2022-08-02T15:23:03.222Z,2
2022-08-02T15:28:07.688Z,2
2022-08-02T15:33:12.260Z,2
2022-08-02T15:38:15.805Z,2
2022-08-02T15:43:20.302Z,2
2022-08-02T15:48:24.876Z,2
2022-08-02T15:53:28.406Z,2
2022-08-02T15:58:32.945Z,2
2022-08-02T16:03:37.601Z,2
2022-08-02T16:08:53.727Z,2
2022-08-02T16:13:53.147Z,2
2022-08-02T16:18:50.092Z,2
2022-08-02T16:24:02.123Z,2
2022-08-02T16:28:58.186Z,2
2022-08-02T16:34:02.746Z,2
2022-08-02T16:39:07.394Z,2
2022-08-02T16:44:10.815Z,2
2022-08-02T16:50:04.471Z,2
2022-08-02T16:54:19.887Z,2
2022-08-02T16:59:25.368Z,2
2022-08-02T17:04:27.953Z,2
2022-08-02T17:10:03.639Z,2
2022-08-02T17:14:54.452Z,2
2022-08-02T17:19:40.591Z,2
2022-08-02T17:24:45.161Z,2
2022-08-02T17:29:49.905Z,2
2022-08-02T17:35:00.098Z,2
2022-08-02T17:39:57.776Z,2
2022-08-02T17:45:16.938Z,2
2022-08-02T17:50:05.963Z,2
2022-08-02T17:55:10.404Z,3
2022-08-02T18:00:14.911Z,2
2022-08-02T18:05:18.485Z,2
2022-08-02T18:10:23.130Z,2
2022-08-02T18:15:27.559Z,2
2022-08-02T18:20:32.083Z,2
2022-08-02T18:25:37.729Z,2
2022-08-02T18:30:39.255Z,2
2022-08-02T18:35:43.767Z,2
2022-08-02T18:40:51.126Z,2
2022-08-02T18:46:05.748Z,2
2022-08-02T18:50:56.323Z,2
2022-08-02T18:56:03.769Z,2
2022-08-02T19:01:21.635Z,2
2022-08-02T19:06:08.928Z,2
2022-08-02T19:11:13.511Z,2
2022-08-02T19:16:18.031Z,2
2022-08-02T19:22:26.805Z,2
2022-08-02T19:26:26.165Z,2
2022-08-02T19:31:34.691Z,2
2022-08-02T19:36:34.340Z,2
2022-08-02T19:41:43.992Z,2
2022-08-02T19:46:43.254Z,2
2022-08-02T19:51:54.750Z,2
2022-08-02T19:56:51.335Z,2
2022-08-02T20:01:55.960Z,2
2022-08-02T20:07:00.409Z,2
2022-08-02T20:12:03.977Z,2
2022-08-02T20:17:08.518Z,2
2022-08-02T20:22:13.172Z,2
2022-08-02T20:27:21.196Z,2
2022-08-02T20:32:21.089Z,2
2022-08-02T20:38:00.630Z,2
2022-08-02T20:42:29.213Z,2
2022-08-02T20:47:39.762Z,2
2022-08-02T20:52:38.269Z,2
2022-08-02T20:58:00.441Z,3
2022-08-02T21:02:46.346Z,3
2022-08-02T21:07:53.414Z,3
2022-08-02T21:12:55.443Z,2
2022-08-02T21:18:01.208Z,2
2022-08-02T21:23:03.486Z,3
2022-08-02T21:28:08.095Z,3
2022-08-02T21:33:22.442Z,2
2022-08-02T21:38:33.500Z,3
2022-08-02T21:43:20.658Z,3
2022-08-02T21:48:24.195Z,3
2022-08-02T21:53:42.808Z,3
2022-08-02T21:58:33.285Z,3
2022-08-02T22:03:36.835Z,3
2022-08-02T22:08:41.344Z,2
2022-08-02T22:13:47.217Z,3
2022-08-02T22:18:52.552Z,3
2022-08-02T22:23:53.969Z,3
2022-08-02T22:28:59.605Z,3
2022-08-02T22:34:03.878Z,3
2022-08-02T22:39:19.005Z,3
2022-08-02T22:44:10.128Z,3
2022-08-02T22:49:17.638Z,3
2022-08-02T22:54:19.173Z,3
2022-08-02T22:59:36.350Z,3
2022-08-02T23:04:27.265Z,2
2022-08-02T23:09:31.775Z,2
2022-08-02T23:14:36.343Z,3
2022-08-02T23:19:39.872Z,2
2022-08-02T23:24:44.405Z,2
2022-08-02T23:29:48.971Z,2
2022-08-02T23:34:52.491Z,2
2022-08-02T23:39:57.038Z,2
2022-08-02T23:45:01.700Z,3
2022-08-02T23:50:05.129Z,2
2022-08-02T23:55:09.650Z,2
